Time;durP1;ratioP1;P1;durP2;ratioP2;P2;SDS_P1;SDS_P2;PMS_P1;PMS_P2;Temp;Humidity;BMP_temperature;BMP_pressure;BME280_temperature;BME280_humidity;BME280_pressure;Samples;Min_cycle;Max_cycle;Signal;HPM_P1;HPM_P2
2021/03/07 00:02:09;;;;;;;7.88;3.72;;;1.10;99.60;;;;;;5013722;28;20029;-66
2021/03/07 00:04:35;;;;;;;9.52;4.72;;;0.90;99.90;;;;;;5013957;28;20032;-66
2021/03/07 00:07:02;;;;;;;9.65;4.70;;;0.70;99.90;;;;;;5013783;28;20034;-66
2021/03/07 00:09:27;;;;;;;8.25;3.92;;;0.70;99.90;;;;;;5013669;28;20037;-64
2021/03/07 00:11:53;;;;;;;8.18;3.70;;;0.70;99.90;;;;;;5013726;28;20479;-66
2021/03/07 00:14:19;;;;;;;9.50;4.35;;;0.60;99.90;;;;;;5013650;28;20041;-65
2021/03/07 00:16:45;;;;;;;10.27;4.47;;;0.60;99.90;;;;;;5013663;28;20032;-65
2021/03/07 00:19:10;;;;;;;6.72;3.65;;;0.60;99.90;;;;;;5013452;28;20129;-65
2021/03/07 00:21:36;;;;;;;6.22;3.33;;;0.60;99.90;;;;;;5013660;28;20033;-65
2021/03/07 00:24:03;;;;;;;6.95;3.95;;;0.60;99.90;;;;;;5013174;28;20034;-64
2021/03/07 00:26:29;;;;;;;8.73;4.68;;;0.60;99.90;;;;;;4995805;28;20061;-65
2021/03/07 00:28:55;;;;;;;8.20;4.03;;;0.70;99.90;;;;;;4992204;28;20050;-65
2021/03/07 00:31:21;;;;;;;7.38;3.90;;;0.60;99.90;;;;;;4993507;28;20109;-65
2021/03/07 00:33:47;;;;;;;6.93;3.67;;;0.60;99.90;;;;;;4993564;28;20042;-65
2021/03/07 00:36:13;;;;;;;8.23;3.92;;;0.50;99.90;;;;;;4993717;28;20125;-65
2021/03/07 00:38:38;;;;;;;10.23;3.63;;;0.60;99.90;;;;;;4992145;28;20439;-65
2021/03/07 00:41:04;;;;;;;7.25;3.67;;;0.50;99.90;;;;;;4993732;28;20034;-64
2021/03/07 00:43:30;;;;;;;8.48;4.03;;;0.60;99.90;;;;;;4993383;28;20881;-64
2021/03/07 00:45:56;;;;;;;10.32;4.63;;;0.60;99.90;;;;;;4992150;28;20399;-65
2021/03/07 00:48:22;;;;;;;8.95;4.20;;;0.50;99.90;;;;;;4993347;28;20027;-65
2021/03/07 00:50:47;;;;;;;11.73;4.70;;;0.50;99.90;;;;;;4991581;28;20038;-66
2021/03/07 00:53:13;;;;;;;6.05;3.58;;;0.40;99.90;;;;;;4993280;28;20080;-65
2021/03/07 00:55:39;;;;;;;9.07;4.57;;;0.40;99.90;;;;;;4993533;28;20622;-65
2021/03/07 00:58:05;;;;;;;8.80;4.25;;;0.40;99.90;;;;;;4993314;28;20045;-65
2021/03/07 01:00:31;;;;;;;8.07;3.72;;;0.40;99.90;;;;;;4993300;28;20023;-65
2021/03/07 01:02:57;;;;;;;17.27;6.43;;;0.30;99.90;;;;;;4993031;28;20391;-65
2021/03/07 01:05:30;;;;;;;9.38;4.82;;;0.30;99.90;;;;;;4992944;28;20041;-66
2021/03/07 01:07:56;;;;;;;9.07;4.72;;;0.10;99.90;;;;;;4991666;28;20042;-66
2021/03/07 01:10:32;;;;;;;9.85;4.68;;;0.00;99.90;;;;;;4992944;28;20026;-66
2021/03/07 01:12:57;;;;;;;9.48;4.20;;;0.00;99.90;;;;;;4991963;28;20026;-65
2021/03/07 01:15:31;;;;;;;5.72;3.55;;;0.10;99.90;;;;;;4992902;28;20037;-65
2021/03/07 01:17:57;;;;;;;7.55;3.38;;;0.10;99.90;;;;;;4991616;28;20039;-65
2021/03/07 01:20:23;;;;;;;8.90;3.78;;;0.20;99.90;;;;;;4993031;28;20037;-65
2021/03/07 01:22:50;;;;;;;9.65;3.95;;;0.20;99.90;;;;;;4992875;28;20105;-66
2021/03/07 01:25:20;;;;;;;8.02;3.75;;;0.10;99.90;;;;;;4991453;28;20029;-66
2021/03/07 01:27:46;;;;;;;10.18;4.40;;;0.10;99.90;;;;;;4993091;28;20050;-65
2021/03/07 01:30:14;;;;;;;8.02;4.63;;;0.00;99.90;;;;;;5011090;28;20049;-65
2021/03/07 01:32:40;;;;;;;12.52;4.75;;;0.00;99.90;;;;;;5012588;28;20430;-65
2021/03/07 01:35:06;;;;;;;13.48;5.15;;;0.00;99.90;;;;;;5012424;28;20030;-66
2021/03/07 01:37:32;;;;;;;8.75;4.70;;;-0.20;99.90;;;;;;4995134;28;20088;-65
2021/03/07 01:39:58;;;;;;;9.88;4.53;;;-0.20;99.90;;;;;;4994897;28;20034;-65
2021/03/07 01:42:24;;;;;;;12.60;5.68;;;-0.20;99.90;;;;;;5012317;28;20056;-66
2021/03/07 01:44:50;;;;;;;9.35;4.90;;;-0.20;99.90;;;;;;5012418;28;20112;-65
2021/03/07 01:47:30;;;;;;;9.85;4.95;;;-0.20;99.90;;;;;;5012322;28;20112;-65
2021/03/07 01:49:56;;;;;;;13.32;4.90;;;-0.20;99.90;;;;;;4995381;28;20034;-65
2021/03/07 01:52:22;;;;;;;11.63;4.10;;;-0.20;99.90;;;;;;4994428;28;20032;-66
2021/03/07 01:54:48;;;;;;;8.88;4.40;;;-0.30;99.90;;;;;;4994697;28;20034;-66
2021/03/07 01:57:16;;;;;;;8.75;5.05;;;-0.40;99.90;;;;;;4994818;28;20479;-66
2021/03/07 01:59:43;;;;;;;10.75;4.90;;;-0.40;99.90;;;;;;4994760;28;20503;-65
2021/03/07 02:02:09;;;;;;;10.55;5.07;;;-0.40;99.90;;;;;;4996098;28;20049;-66
2021/03/07 02:04:35;;;;;;;14.13;5.90;;;-0.40;99.90;;;;;;5016121;28;20324;-65
2021/03/07 02:07:00;;;;;;;10.25;5.07;;;-0.50;99.90;;;;;;5015987;28;20041;-64
2021/03/07 02:09:26;;;;;;;9.63;5.10;;;-0.50;99.90;;;;;;5016014;28;20033;-65
2021/03/07 02:11:53;;;;;;;8.85;4.70;;;-0.50;99.90;;;;;;5015622;28;20037;-65
2021/03/07 02:14:19;;;;;;;10.57;4.88;;;-0.50;99.90;;;;;;4997929;28;20042;-65
2021/03/07 02:16:45;;;;;;;9.35;4.38;;;-0.60;99.90;;;;;;4998173;28;20456;-65
2021/03/07 02:19:12;;;;;;;12.20;5.25;;;-0.60;99.90;;;;;;4998257;28;20038;-64
2021/03/07 02:21:51;;;;;;;10.93;4.57;;;-0.50;99.90;;;;;;4998287;28;20483;-64
2021/03/07 02:24:17;;;;;;;9.30;4.88;;;-0.60;99.90;;;;;;4982145;28;20045;-65
2021/03/07 02:26:49;;;;;;;10.40;4.55;;;-0.60;99.90;;;;;;5015560;28;20104;-65
2021/03/07 02:29:19;;;;;;;10.48;4.32;;;-0.60;99.90;;;;;;5015301;28;20045;-65
2021/03/07 02:31:57;;;;;;;7.80;4.38;;;-0.70;99.90;;;;;;5015766;28;20451;-65
2021/03/07 02:34:41;;;;;;;9.30;4.68;;;-0.70;99.90;;;;;;5015380;28;20080;-66
2021/03/07 02:37:10;;;;;;;11.05;4.88;;;-0.70;99.90;;;;;;4998403;28;20041;-66
2021/03/07 02:39:41;;;;;;;10.82;4.97;;;-0.70;99.90;;;;;;5015159;28;20037;-66
2021/03/07 02:42:17;;;;;;;11.50;4.80;;;-1.00;99.90;;;;;;4998306;28;20038;-65
2021/03/07 02:45:03;;;;;;;8.55;4.60;;;-1.00;99.90;;;;;;5015124;28;20037;-65
2021/03/07 02:47:33;;;;;;;9.70;4.30;;;-1.20;99.90;;;;;;4999198;28;20033;-65
2021/03/07 02:50:08;;;;;;;9.90;4.78;;;-1.10;99.90;;;;;;5014965;28;20430;-66
2021/03/07 02:52:37;;;;;;;11.27;4.65;;;-1.10;99.90;;;;;;4981343;28;20026;-65
2021/03/07 02:55:07;;;;;;;8.95;4.63;;;-1.20;99.90;;;;;;4997665;28;20044;-65
2021/03/07 02:57:34;;;;;;;10.45;4.95;;;-1.40;99.90;;;;;;5014899;28;20030;-66
2021/03/07 03:00:03;;;;;;;13.57;4.90;;;-1.50;99.90;;;;;;4997589;28;20391;-66
2021/03/07 03:02:31;;;;;;;11.68;4.45;;;-1.40;99.90;;;;;;4981341;28;20095;-65
2021/03/07 03:04:59;;;;;;;8.45;4.43;;;-1.50;99.90;;;;;;4996848;28;20026;-65
2021/03/07 03:07:27;;;;;;;8.90;4.35;;;-1.50;99.90;;;;;;4995841;28;20042;-66
2021/03/07 03:09:55;;;;;;;8.90;4.47;;;-1.60;99.90;;;;;;5014281;28;20037;-66
2021/03/07 03:12:24;;;;;;;8.70;4.60;;;-1.50;99.90;;;;;;4997170;28;20537;-65
2021/03/07 03:14:50;;;;;;;7.88;4.57;;;-1.50;99.90;;;;;;5013685;28;20025;-65
2021/03/07 03:17:16;;;;;;;13.75;5.07;;;-1.50;99.90;;;;;;4996640;28;20064;-65
2021/03/07 03:19:45;;;;;;;10.60;4.72;;;-1.60;99.90;;;;;;5014424;28;20026;-65
2021/03/07 03:22:12;;;;;;;10.93;4.55;;;-1.60;99.90;;;;;;4997321;28;20038;-65
2021/03/07 03:24:38;;;;;;;17.30;5.30;;;-1.60;99.90;;;;;;4996818;28;20091;-65
2021/03/07 03:27:05;;;;;;;9.85;4.90;;;-1.60;99.90;;;;;;4997166;28;20030;-65
2021/03/07 03:29:32;;;;;;;9.18;4.90;;;-1.60;99.90;;;;;;4996729;28;20530;-66
2021/03/07 03:31:59;;;;;;;12.35;5.35;;;-1.70;99.90;;;;;;5014333;28;20076;-65
2021/03/07 03:34:25;;;;;;;11.63;5.45;;;-1.80;99.90;;;;;;5013949;28;20029;-66
2021/03/07 03:36:51;;;;;;;13.80;5.60;;;-1.90;99.90;;;;;;4997066;28;20522;-65
2021/03/07 03:39:20;;;;;;;10.23;5.63;;;-2.00;99.90;;;;;;5014055;28;20065;-65
2021/03/07 03:41:50;;;;;;;12.13;5.50;;;-2.00;99.90;;;;;;5014479;28;20340;-65
2021/03/07 03:44:22;;;;;;;13.07;4.90;;;-2.00;99.90;;;;;;4996635;28;20112;-65
2021/03/07 03:46:53;;;;;;;11.75;5.35;;;-2.00;99.90;;;;;;4997223;28;20030;-66
2021/03/07 03:49:38;;;;;;;10.17;5.63;;;-1.90;99.90;;;;;;5014010;28;20030;-65
2021/03/07 03:52:06;;;;;;;10.07;4.40;;;-1.80;99.90;;;;;;5014183;28;20030;-65
2021/03/07 03:55:19;;;;;;;12.43;4.68;;;-1.60;99.90;;;;;;4979925;28;20030;-65
2021/03/07 03:57:48;;;;;;;15.20;5.78;;;-1.50;99.90;;;;;;5013684;28;20201;-65
2021/03/07 04:00:19;;;;;;;14.48;6.00;;;-1.40;99.90;;;;;;4996837;28;20030;-66
2021/03/07 04:02:46;;;;;;;12.65;5.45;;;-1.40;99.90;;;;;;4996660;28;20101;-64
2021/03/07 04:05:18;;;;;;;12.00;5.45;;;-1.30;99.90;;;;;;4996557;28;20506;-65
2021/03/07 04:07:46;;;;;;;12.45;5.20;;;-1.30;99.90;;;;;;5013560;28;20042;-65
2021/03/07 04:10:15;;;;;;;16.75;7.90;;;-1.30;99.90;;;;;;5013563;28;20034;-65
2021/03/07 04:12:43;;;;;;;10.07;4.47;;;-1.30;99.90;;;;;;5013704;28;20045;-65
2021/03/07 04:15:12;;;;;;;10.43;4.47;;;-1.30;99.90;;;;;;5013611;28;20022;-65
2021/03/07 04:17:39;;;;;;;8.15;4.40;;;-1.30;99.90;;;;;;5013284;28;20042;-66
2021/03/07 04:20:07;;;;;;;10.30;4.10;;;-1.30;99.90;;;;;;5013359;28;20048;-66
2021/03/07 04:22:32;;;;;;;10.18;4.13;;;-1.40;99.90;;;;;;4995838;28;20037;-66
2021/03/07 04:24:59;;;;;;;11.23;4.47;;;-1.50;99.90;;;;;;5013445;28;20034;-65
2021/03/07 04:27:25;;;;;;;8.98;4.90;;;-1.60;99.90;;;;;;4995923;28;20509;-66
2021/03/07 04:29:51;;;;;;;10.68;4.43;;;-1.70;99.90;;;;;;5013046;28;20076;-66
2021/03/07 04:32:18;;;;;;;10.98;4.80;;;-1.60;99.90;;;;;;5013373;28;20041;-66
2021/03/07 04:34:45;;;;;;;9.18;4.70;;;-1.70;99.90;;;;;;5013320;28;20382;-66
2021/03/07 04:37:11;;;;;;;11.90;5.40;;;-1.70;99.90;;;;;;4995912;28;20034;-66
2021/03/07 04:39:38;;;;;;;8.27;4.55;;;-1.80;99.90;;;;;;4995424;28;20664;-65
2021/03/07 04:42:05;;;;;;;11.23;5.20;;;-1.80;99.90;;;;;;4995751;28;20060;-66
2021/03/07 04:44:31;;;;;;;9.55;4.30;;;-1.90;99.90;;;;;;4995462;28;20041;-64
2021/03/07 04:46:57;;;;;;;14.73;5.25;;;-2.00;99.90;;;;;;4995535;28;20053;-66
2021/03/07 04:49:23;;;;;;;10.07;4.90;;;-2.00;99.90;;;;;;5012822;28;20632;-65
2021/03/07 04:51:50;;;;;;;11.50;4.65;;;-2.10;99.90;;;;;;5012729;28;20116;-65
2021/03/07 04:54:17;;;;;;;12.50;5.00;;;-2.20;99.90;;;;;;5013053;28;20518;-66
2021/03/07 04:56:43;;;;;;;10.90;4.90;;;-2.30;99.90;;;;;;5012684;28;20038;-66
2021/03/07 04:59:09;;;;;;;10.45;4.63;;;-2.30;99.90;;;;;;5013105;28;20092;-65
2021/03/07 05:01:36;;;;;;;14.48;5.50;;;-2.40;99.90;;;;;;5012495;28;20025;-65
2021/03/07 05:04:06;;;;;;;9.90;5.00;;;-2.40;99.90;;;;;;4995499;28;20038;-65
2021/03/07 05:06:39;;;;;;;11.18;4.70;;;-2.50;99.90;;;;;;5012479;28;20026;-65
2021/03/07 05:09:07;;;;;;;12.05;4.43;;;-2.50;99.90;;;;;;4995121;28;20051;-65
2021/03/07 05:11:33;;;;;;;12.15;5.63;;;-2.50;99.90;;;;;;4995320;28;20029;-65
2021/03/07 05:14:00;;;;;;;9.57;5.43;;;-2.50;99.90;;;;;;4995302;28;20030;-65
2021/03/07 05:16:28;;;;;;;12.43;5.10;;;-2.40;99.90;;;;;;4978823;28;20037;-64
2021/03/07 05:18:54;;;;;;;11.27;5.53;;;-2.40;99.90;;;;;;4994647;28;20026;-66
2021/03/07 05:21:19;;;;;;;8.93;4.97;;;-2.40;99.90;;;;;;5012733;28;20022;-65
2021/03/07 05:23:45;;;;;;;10.70;5.20;;;-2.50;99.90;;;;;;5012662;28;20120;-66
2021/03/07 05:26:11;;;;;;;13.15;6.13;;;-2.50;99.90;;;;;;5012658;28;20632;-65
2021/03/07 05:28:37;;;;;;;12.35;5.75;;;-2.40;99.90;;;;;;4994621;28;20514;-65
2021/03/07 05:31:03;;;;;;;12.63;5.93;;;-2.40;99.90;;;;;;4994817;28;20659;-65
2021/03/07 05:33:30;;;;;;;14.43;5.63;;;-2.40;99.90;;;;;;5012604;28;20030;-65
2021/03/07 05:35:56;;;;;;;11.93;6.03;;;-2.50;99.90;;;;;;5012381;28;20029;-66
2021/03/07 05:38:22;;;;;;;12.50;6.25;;;-2.50;99.90;;;;;;4997519;28;20483;-65
2021/03/07 05:40:48;;;;;;;14.27;6.80;;;-2.60;99.90;;;;;;5016382;28;20076;-66
2021/03/07 05:43:15;;;;;;;14.15;5.88;;;-2.60;99.90;;;;;;4998783;28;20474;-66
2021/03/07 05:45:40;;;;;;;14.32;6.18;;;-2.60;99.90;;;;;;4998654;28;20029;-66
2021/03/07 05:48:07;;;;;;;14.35;6.32;;;-2.60;99.90;;;;;;5016334;28;20433;-66
2021/03/07 05:50:33;;;;;;;15.55;6.28;;;-2.60;99.90;;;;;;5016033;28;20053;-66
2021/03/07 05:52:59;;;;;;;15.02;6.03;;;-2.60;99.90;;;;;;5016488;28;20029;-66
2021/03/07 05:55:27;;;;;;;15.45;6.07;;;-2.60;99.90;;;;;;4998814;28;20113;-66
2021/03/07 05:57:58;;;;;;;19.98;6.15;;;-2.60;99.90;;;;;;4998628;28;20038;-66
2021/03/07 06:00:24;;;;;;;10.82;5.95;;;-2.70;99.90;;;;;;5016067;28;20117;-66
2021/03/07 06:02:50;;;;;;;13.05;5.30;;;-2.70;99.90;;;;;;5015952;28;20084;-66
2021/03/07 06:05:16;;;;;;;13.43;6.32;;;-2.70;99.90;;;;;;5016188;28;20034;-65
2021/03/07 06:07:46;;;;;;;21.50;6.07;;;-2.70;99.90;;;;;;5015705;28;20026;-65
2021/03/07 06:10:23;;;;;;;12.75;6.00;;;-2.70;99.90;;;;;;5015824;28;20505;-65
2021/03/07 06:13:09;;;;;;;12.00;6.30;;;-2.60;99.90;;;;;;5015411;28;20391;-65
2021/03/07 06:15:37;;;;;;;12.90;5.32;;;-2.70;99.90;;;;;;4998896;28;20029;-65
2021/03/07 06:18:15;;;;;;;13.07;5.30;;;-2.60;99.90;;;;;;4998086;28;20121;-65
2021/03/07 06:20:41;;;;;;;11.05;6.25;;;-2.60;99.90;;;;;;4998389;28;20030;-64
2021/03/07 06:23:08;;;;;;;11.57;5.93;;;-2.50;99.90;;;;;;5015517;28;20026;-66
2021/03/07 06:25:48;;;;;;;13.30;6.18;;;-2.50;99.90;;;;;;5015671;28;20494;-65
2021/03/07 06:28:30;;;;;;;13.25;6.95;;;-2.40;99.90;;;;;;4998225;28;20030;-65
2021/03/07 06:30:56;;;;;;;11.38;5.80;;;-2.40;99.90;;;;;;5014364;28;20106;-65
2021/03/07 06:33:34;;;;;;;17.45;5.95;;;-2.40;99.90;;;;;;5008079;28;20076;-65
2021/03/07 06:36:22;;;;;;;19.45;7.05;;;-2.40;99.90;;;;;;4986944;28;20063;-64
2021/03/07 06:38:56;;;;;;;11.60;6.18;;;-2.30;99.90;;;;;;5005445;28;20435;-65
2021/03/07 06:41:29;;;;;;;15.30;6.18;;;-2.40;99.90;;;;;;5014994;28;20034;-64
2021/03/07 06:44:17;;;;;;;17.50;6.80;;;-2.40;99.90;;;;;;4974357;28;20736;-67
2021/03/07 06:46:48;;;;;;;13.93;6.10;;;-2.30;99.90;;;;;;5015135;28;20379;-67
2021/03/07 06:49:24;;;;;;;17.08;7.18;;;-2.30;99.90;;;;;;5002520;28;20057;-69
2021/03/07 06:51:51;;;;;;;13.85;6.35;;;-2.20;99.90;;;;;;5014050;28;20034;-68
2021/03/07 06:54:20;;;;;;;11.50;5.68;;;-2.10;99.90;;;;;;5013486;28;20030;-70
2021/03/07 06:56:50;;;;;;;14.35;5.75;;;-2.10;99.90;;;;;;5016475;28;20033;-69
2021/03/07 06:59:22;;;;;;;10.10;5.50;;;-2.10;99.90;;;;;;5015233;28;20089;-69
2021/03/07 07:01:57;;;;;;;;;;;-2.00;99.90;;;;;;5015095;28;20034;-69
2021/03/07 07:04:25;;;;;;;13.27;6.55;;;-2.00;99.90;;;;;;5021295;28;19913;-69
2021/03/07 07:07:06;;;;;;;16.35;7.25;;;-1.90;99.90;;;;;;5014634;28;20092;-68
2021/03/07 07:09:35;;;;;;;14.52;6.32;;;-1.80;99.90;;;;;;5014627;28;20129;-69
2021/03/07 07:12:07;;;;;;;14.35;6.95;;;-1.70;99.90;;;;;;4997276;28;20104;-68
2021/03/07 07:14:40;;;;;;;13.18;6.10;;;-1.60;99.90;;;;;;5014987;28;20034;-67
2021/03/07 07:17:18;;;;;;;10.75;6.20;;;-1.50;99.90;;;;;;5014704;28;20045;-69
2021/03/07 07:19:47;;;;;;;15.48;6.38;;;-1.40;99.90;;;;;;5023292;28;20022;-69
2021/03/07 07:22:16;;;;;;;15.70;7.80;;;-1.40;99.90;;;;;;5034404;28;20053;-68
2021/03/07 07:24:44;;;;;;;12.15;6.60;;;-1.30;99.90;;;;;;5034446;28;20060;-69
2021/03/07 07:27:10;;;;;;;12.88;6.97;;;-1.20;99.90;;;;;;5034400;28;20044;-69
2021/03/07 07:29:38;;;;;;;11.43;5.95;;;-1.20;99.90;;;;;;5034027;28;20041;-70
2021/03/07 07:32:15;;;;;;;12.25;5.35;;;-1.20;99.90;;;;;;5000197;28;20107;-68
2021/03/07 07:34:52;;;;;;;10.95;6.25;;;-1.10;99.90;;;;;;5034141;28;20029;-69
2021/03/07 07:37:45;;;;;;;10.38;5.53;;;-1.10;99.90;;;;;;5016832;28;20414;-69
2021/03/07 07:40:11;;;;;;;12.75;5.80;;;-1.00;99.90;;;;;;5033827;28;20116;-68
2021/03/07 07:42:38;;;;;;;11.35;5.70;;;-0.90;99.90;;;;;;5004733;28;20229;-68
2021/03/07 07:45:09;;;;;;;14.20;5.90;;;-0.80;99.90;;;;;;5000298;28;20429;-69
2021/03/07 07:47:44;;;;;;;12.82;5.18;;;-0.60;99.90;;;;;;5013178;28;20034;-68
2021/03/07 07:50:31;;;;;;;15.15;5.93;;;-0.60;99.90;;;;;;5024158;28;20029;-70
2021/03/07 07:53:10;;;;;;;12.25;5.60;;;-0.40;99.90;;;;;;5032914;28;20086;-69
2021/03/07 07:55:51;;;;;;;10.07;5.28;;;-0.30;99.90;;;;;;5017041;28;20033;-69
2021/03/07 07:58:39;;;;;;;;;;;-0.30;99.90;;;;;;5033598;28;20033;-69
2021/03/07 08:01:13;;;;;;;11.15;5.20;;;-0.20;99.90;;;;;;5033155;28;19920;-69
2021/03/07 08:03:49;;;;;;;9.93;5.32;;;-0.10;99.90;;;;;;5033547;28;20112;-69
2021/03/07 08:06:24;;;;;;;10.13;5.32;;;-0.10;99.90;;;;;;5033653;28;20111;-69
2021/03/07 08:08:50;;;;;;;9.13;5.03;;;0.00;99.90;;;;;;5033197;28;20038;-68
2021/03/07 08:11:18;;;;;;;12.43;5.63;;;0.20;99.90;;;;;;5033471;28;20026;-69
2021/03/07 08:13:47;;;;;;;10.07;5.65;;;0.30;99.90;;;;;;5033293;28;20049;-69
2021/03/07 08:16:39;;;;;;;10.65;5.28;;;0.40;99.90;;;;;;5033474;28;20091;-69
2021/03/07 08:19:08;;;;;;;13.45;5.57;;;0.50;99.90;;;;;;4997797;28;20068;-69
2021/03/07 08:22:03;;;;;;;11.10;4.88;;;0.70;99.90;;;;;;5013449;28;20049;-69
2021/03/07 08:24:47;;;;;;;11.82;5.70;;;0.70;99.90;;;;;;5013494;28;20022;-69
2021/03/07 08:27:39;;;;;;;12.45;5.72;;;0.80;99.90;;;;;;5013123;28;20045;-68
2021/03/07 08:30:11;;;;;;;12.18;5.30;;;0.90;99.90;;;;;;5012819;28;20073;-70
2021/03/07 08:32:45;;;;;;;9.82;5.00;;;1.10;99.90;;;;;;4996093;28;20038;-69
2021/03/07 08:35:14;;;;;;;9.13;4.70;;;1.30;99.90;;;;;;5013256;28;20033;-67
2021/03/07 08:37:41;;;;;;;10.15;5.15;;;1.40;99.90;;;;;;5013244;28;20046;-67
2021/03/07 08:40:28;;;;;;;8.88;4.68;;;1.50;99.90;;;;;;5013244;28;20034;-69
2021/03/07 08:43:19;;;;;;;10.57;5.57;;;1.60;99.90;;;;;;4995568;28;20029;-70
2021/03/07 08:46:05;;;;;;;8.65;4.63;;;1.80;99.90;;;;;;4998311;28;20080;-69
2021/03/07 08:48:32;;;;;;;8.68;4.97;;;1.90;99.90;;;;;;4995870;28;20030;-69
2021/03/07 08:51:00;;;;;;;10.63;4.95;;;2.00;99.90;;;;;;5031452;28;20508;-69
2021/03/07 08:53:31;;;;;;;8.88;4.25;;;2.10;99.90;;;;;;5032689;28;20529;-70
2021/03/07 08:55:57;;;;;;;11.30;5.13;;;2.20;99.90;;;;;;5032611;28;20034;-69
2021/03/07 08:58:24;;;;;;;8.45;4.68;;;2.30;99.90;;;;;;5032527;28;20040;-71
2021/03/07 09:00:53;;;;;;;9.10;4.70;;;2.30;99.90;;;;;;5014830;28;20116;-69
2021/03/07 09:03:21;;;;;;;10.05;4.65;;;2.50;99.50;;;;;;5032642;28;20497;-69
2021/03/07 09:05:48;;;;;;;10.38;5.00;;;2.60;99.20;;;;;;5029014;28;20043;-69
2021/03/07 09:08:15;;;;;;;11.82;4.50;;;2.80;98.70;;;;;;5014800;28;20474;-69
2021/03/07 09:10:45;;;;;;;7.88;4.13;;;2.90;98.30;;;;;;5032472;28;20037;-69
2021/03/07 09:13:25;;;;;;;8.98;4.38;;;3.00;98.30;;;;;;5032033;28;20377;-69
2021/03/07 09:16:01;;;;;;;9.45;4.72;;;3.20;97.50;;;;;;5032358;28;20032;-68
2021/03/07 09:18:35;;;;;;;7.88;4.30;;;3.40;97.10;;;;;;5032368;28;20410;-68
2021/03/07 09:21:08;;;;;;;11.40;4.88;;;3.70;96.30;;;;;;5012845;28;20045;-69
2021/03/07 09:23:44;;;;;;;11.52;4.32;;;3.80;95.20;;;;;;5012670;28;20113;-68
2021/03/07 09:26:22;;;;;;;8.80;4.43;;;3.90;94.80;;;;;;4995170;28;20033;-67
2021/03/07 09:28:55;;;;;;;8.77;4.60;;;4.10;94.50;;;;;;5012102;28;20050;-69
2021/03/07 09:31:32;;;;;;;12.68;4.70;;;4.10;94.60;;;;;;4994574;28;20076;-70
2021/03/07 09:34:01;;;;;;;8.57;5.28;;;4.20;94.80;;;;;;4994242;28;20029;-68
2021/03/07 09:36:30;;;;;;;10.23;4.63;;;4.40;94.80;;;;;;4994328;28;20485;-70
2021/03/07 09:39:07;;;;;;;10.07;5.35;;;4.40;94.60;;;;;;5012223;28;20096;-68
2021/03/07 09:41:47;;;;;;;8.60;4.90;;;4.50;93.90;;;;;;5012428;28;20041;-66
2021/03/07 09:44:22;;;;;;;8.55;4.75;;;4.70;93.80;;;;;;5012117;28;20478;-65
2021/03/07 09:46:52;;;;;;;7.38;4.05;;;4.70;93.50;;;;;;5012284;28;20057;-67
2021/03/07 09:49:24;;;;;;;8.30;4.47;;;4.90;92.30;;;;;;4999966;28;20050;-65
2021/03/07 09:51:55;;;;;;;11.98;4.45;;;5.10;92.00;;;;;;5031968;28;20025;-66
2021/03/07 09:54:21;;;;;;;7.55;4.22;;;5.20;92.30;;;;;;5031731;28;20429;-65
2021/03/07 09:56:52;;;;;;;9.90;4.50;;;5.20;91.10;;;;;;5031624;28;20026;-64
2021/03/07 09:59:21;;;;;;;;;;;5.30;90.70;;;;;;5014663;28;20033;-65
2021/03/07 10:01:50;;;;;;;7.75;4.13;;;5.60;89.50;;;;;;5031843;28;19938;-65
2021/03/07 10:04:44;;;;;;;6.55;3.17;;;5.90;88.50;;;;;;5032078;28;20036;-66
2021/03/07 10:07:10;;;;;;;6.15;3.67;;;6.10;85.10;;;;;;5016262;28;20059;-68
2021/03/07 10:10:14;;;;;;;7.85;3.78;;;6.20;83.80;;;;;;5031920;28;20478;-68
2021/03/07 10:12:55;;;;;;;6.47;3.60;;;6.30;83.40;;;;;;5032000;28;20187;-68
2021/03/07 10:15:34;;;;;;;7.60;3.92;;;6.60;81.40;;;;;;5032023;28;20119;-67
2021/03/07 10:18:22;;;;;;;9.25;4.97;;;6.70;80.30;;;;;;5031417;28;20372;-68
2021/03/07 10:20:58;;;;;;;8.38;4.07;;;6.90;79.30;;;;;;5013655;28;20553;-69
2021/03/07 10:23:29;;;;;;;9.48;4.20;;;7.20;77.60;;;;;;5013357;28;20033;-67
2021/03/07 10:25:57;;;;;;;8.13;4.68;;;7.40;75.60;;;;;;5015573;28;20022;-67
2021/03/07 10:28:33;;;;;;;6.93;3.83;;;7.50;73.00;;;;;;5015497;28;20046;-66
2021/03/07 10:31:13;;;;;;;8.60;4.25;;;7.60;72.40;;;;;;5015469;28;20483;-67
2021/03/07 10:33:40;;;;;;;6.65;3.45;;;7.80;70.10;;;;;;5015832;28;20038;-67
2021/03/07 10:36:19;;;;;;;6.72;3.70;;;8.10;68.60;;;;;;5015288;28;20041;-67
2021/03/07 10:38:47;;;;;;;5.35;3.05;;;8.30;65.70;;;;;;5015522;28;20382;-66
2021/03/07 10:41:25;;;;;;;5.35;3.05;;;8.50;64.90;;;;;;5015302;28;20033;-66
2021/03/07 10:43:55;;;;;;;7.07;3.53;;;8.10;63.10;;;;;;5015455;28;20038;-66
2021/03/07 10:46:42;;;;;;;6.32;3.25;;;8.10;62.90;;;;;;5015531;28;20157;-66
2021/03/07 10:49:10;;;;;;;7.57;3.55;;;7.70;65.20;;;;;;4997704;28;20096;-66
2021/03/07 10:51:38;;;;;;;7.43;3.63;;;8.50;63.40;;;;;;5015442;28;20040;-66
2021/03/07 10:54:05;;;;;;;6.63;3.35;;;8.80;62.70;;;;;;4997541;28;20101;-67
2021/03/07 10:56:33;;;;;;;6.93;3.42;;;9.10;60.10;;;;;;5015254;28;20041;-65
2021/03/07 10:59:00;;;;;;;18.00;8.23;;;8.80;60.00;;;;;;5014978;28;20145;-66
2021/03/07 11:01:26;;;;;;;10.63;4.57;;;8.90;61.50;;;;;;5014941;28;20060;-67
2021/03/07 11:03:52;;;;;;;5.18;3.13;;;9.90;87.60;;;;;;5014897;28;20096;-69
2021/03/07 11:06:19;;;;;;;5.70;2.80;;;9.00;58.40;;;;;;5014652;28;20103;-70
2021/03/07 11:08:49;;;;;;;5.18;2.83;;;8.90;60.30;;;;;;5014695;28;20390;-68
2021/03/07 11:11:16;;;;;;;3.20;2.20;;;8.70;54.40;;;;;;5016988;28;20497;-69
2021/03/07 11:13:42;;;;;;;4.53;3.00;;;9.60;51.60;;;;;;5014944;28;20057;-69
2021/03/07 11:16:08;;;;;;;5.95;2.60;;;9.90;48.90;;;;;;5014442;28;20617;-68
2021/03/07 11:18:34;;;;;;;4.47;2.85;;;10.90;47.70;;;;;;5014743;28;20045;-68
2021/03/07 11:21:00;;;;;;;4.43;2.63;;;11.60;48.10;;;;;;5033546;28;20505;-68
2021/03/07 11:23:26;;;;;;;61.40;26.67;;;9.40;49.20;;;;;;5034466;28;20123;-69
2021/03/07 11:25:52;;;;;;;6.13;3.38;;;10.30;50.00;;;;;;5034340;28;20498;-70
2021/03/07 11:28:17;;;;;;;5.50;2.97;;;10.30;47.80;;;;;;5034101;28;20144;-67
2021/03/07 11:30:44;;;;;;;4.15;2.45;;;11.40;45.90;;;;;;5034367;28;20033;-49
2021/03/07 11:33:10;;;;;;;6.07;2.95;;;10.60;46.00;;;;;;5034149;28;20034;-55
2021/03/07 11:35:36;;;;;;;6.00;2.80;;;11.00;47.30;;;;;;5033251;28;20457;-52
2021/03/07 11:38:01;;;;;;;5.38;2.78;;;12.30;46.30;;;;;;5033839;28;20041;-54
2021/03/07 11:40:28;;;;;;;5.28;2.67;;;13.10;45.60;;;;;;5034119;28;20111;-54
2021/03/07 11:42:55;;;;;;;8.00;2.35;;;14.80;40.00;;;;;;5033897;28;20049;-52
2021/03/07 11:45:21;;;;;;;4.45;2.50;;;16.30;37.10;;;;;;5034101;28;20116;-56
2021/03/07 11:47:47;;;;;;;4.35;2.55;;;16.10;38.70;;;;;;5034188;28;20029;-55
2021/03/07 11:50:13;;;;;;;4.45;2.38;;;14.20;37.20;;;;;;5021054;28;20080;-56
2021/03/07 11:52:39;;;;;;;5.35;3.28;;;14.40;38.50;;;;;;5014017;28;20139;-56
2021/03/07 11:55:07;;;;;;;4.18;2.63;;;14.90;37.10;;;;;;5014004;28;20466;-55
2021/03/07 11:57:34;;;;;;;7.82;4.97;;;16.80;36.50;;;;;;5013993;28;20033;-55
2021/03/07 12:00:01;;;;;;;5.05;2.90;;;17.60;33.80;;;;;;5013905;28;20569;-55
2021/03/07 12:02:27;;;;;;;3.78;2.13;;;17.50;34.30;;;;;;5014197;28;20034;-56
2021/03/07 12:04:53;;;;;;;5.25;3.40;;;19.40;33.10;;;;;;5013846;28;20030;-55
2021/03/07 12:07:18;;;;;;;4.47;2.40;;;19.40;31.30;;;;;;5013849;28;20084;-56
2021/03/07 12:09:44;;;;;;;5.63;2.60;;;20.30;31.40;;;;;;5013954;28;20058;-54
2021/03/07 12:12:11;;;;;;;5.50;2.60;;;16.90;31.30;;;;;;4996336;28;20625;-53
2021/03/07 12:14:38;;;;;;;4.65;2.60;;;19.80;32.00;;;;;;5013691;28;20034;-52
2021/03/07 12:17:03;;;;;;;4.35;2.47;;;18.60;34.00;;;;;;5013502;28;20039;-55
2021/03/07 12:19:29;;;;;;;3.72;2.40;;;18.80;30.60;;;;;;5020261;28;20034;-56
2021/03/07 12:21:56;;;;;;;4.65;2.50;;;15.60;33.80;;;;;;5033005;28;20041;-51
2021/03/07 12:24:23;;;;;;;5.28;2.60;;;16.00;33.50;;;;;;5015444;28;20034;-54
2021/03/07 12:26:49;;;;;;;4.60;2.70;;;15.00;34.90;;;;;;5033285;28;20441;-55
2021/03/07 12:29:14;;;;;;;4.95;2.78;;;15.70;33.80;;;;;;5014787;28;20061;-55
2021/03/07 12:31:40;;;;;;;4.57;2.80;;;14.40;35.60;;;;;;5032708;28;20033;-66
2021/03/07 12:34:06;;;;;;;5.15;2.42;;;14.10;36.10;;;;;;5032686;28;20048;-66
2021/03/07 12:36:32;;;;;;;4.95;2.58;;;13.90;37.40;;;;;;5032974;28;20030;-67
2021/03/07 12:38:59;;;;;;;3.83;2.05;;;17.70;33.90;;;;;;5015302;28;20116;-67
2021/03/07 12:41:25;;;;;;;6.28;2.88;;;14.80;34.60;;;;;;5032933;28;20033;-68
2021/03/07 12:43:51;;;;;;;5.55;3.30;;;15.80;35.30;;;;;;5033072;28;20036;-67
2021/03/07 12:46:17;;;;;;;5.38;2.92;;;15.70;34.20;;;;;;5015178;28;20057;-72
2021/03/07 12:48:42;;;;;;;7.40;3.80;;;16.60;33.80;;;;;;5032385;28;20037;-72
2021/03/07 12:51:08;;;;;;;5.10;2.50;;;17.90;33.70;;;;;;4995351;28;20064;-73
2021/03/07 12:53:34;;;;;;;5.10;2.53;;;18.10;30.30;;;;;;5013115;28;20450;-73
2021/03/07 12:56:00;;;;;;;4.60;2.40;;;17.40;32.80;;;;;;4995106;28;20032;-73
2021/03/07 12:58:26;;;;;;;3.58;2.35;;;17.30;32.40;;;;;;5013125;28;20061;-73
2021/03/07 13:00:51;;;;;;;4.05;2.38;;;12.40;34.10;;;;;;5012637;28;20466;-72